METAR - Iceland

Last updated 13.12.2018 - at. 04:47

SIGMET for the last six hours

No SIGMET messages last 6 hours.

METAR from the last three hours

AerodromeTimeMessage
BIAR2018-12-13 04.00METAR BIAR 130400Z 18004KT CAVOK 00/M02 Q1003
BIAR2018-12-13 03.00METAR BIAR 130300Z VRB04KT CAVOK 01/M01 Q1004
BIAR2018-12-13 02.00METAR BIAR 130200Z 33004KT 290V350 CAVOK 01/M01 Q1004
BIEG2018-12-13 04.00METAR BIEG 130400Z 05005KT 360V110 9999 SCT035 OVC120 02/00 Q1006 R04/790092
BIEG2018-12-13 03.00METAR BIEG 130300Z 01008KT 9999 SCT035 OVC120 02/00 Q1007 R04/790027
BIEG2018-12-13 02.00METAR BIEG 130200Z 35005KT 9999 SCT040 OVC120 02/01 Q1007 R04/750095
BIKF2018-12-13 04.30METAR BIKF 130430Z 11027G37KT 9999 -RA FEW014 BKN020 OVC035 07/05 Q0994
BIKF2018-12-13 04.00METAR BIKF 130400Z 11028G38KT 9999 -RA FEW014 BKN020 OVC035 07/05 Q0995
BIKF2018-12-13 03.30METAR BIKF 130330Z 11024KT 9999 -RA FEW014 BKN020 OVC035 07/05 Q0995
BIKF2018-12-13 03.00METAR BIKF 130300Z 11028KT 9999 -DZ FEW014 BKN020 OVC035 07/05 Q0996
BIKF2018-12-13 02.30METAR BIKF 130230Z 10024KT 9000 -DZRA SCT011 BKN020 BKN031 07/05 Q0996
BIKF2018-12-13 02.00METAR BIKF 130200Z 11026G36KT 9000 -RA SCT011 BKN018 BKN031 07/05 Q0996
BIRK2018-12-13 04.00METAR BIRK 130400Z 09013KT 9999 SCT035 BKN044 OVC120 07/01 Q0996
BIRK2018-12-13 03.00METAR BIRK 130300Z 09015KT 9999 SCT036 BKN043 OVC130 07/01 Q0997
BIRK2018-12-13 02.00METAR BIRK 130200Z 08013KT 9999 -RA SCT030 BKN034 BKN043 06/01 Q0998





Other related web sites


This website is built with Eplica CMS